Airfield :
LOGIN :

Register | Disclaimer

   EN    FR    IT 

 










Legend :    VFR   Marginal VFR   IFR   Intensive IFR   Very Intensive IFR
Visi :
Ceiling :
>= 8 km
>= 3000ft
5 to 8 km
1000 to 3000 ft
1500m to 5 km
500 to 1000 ft
800 to 1500m
200 to 500 ft
< 800m
< 200 ft
Symbols :   Thunderstorms  Fog  Heavy snow  Heavy precipitations  Wind > 20 kt
SIGMETs :     Misc.  Thunderstorms  Icing  Turbulence  Mountain Waves  Volcanic Ashes






- Airport Elevation : 286 ft
- IATA code : FFD


EGVA - RAF Fairford

EXPIRED METARs :
  • 211255Z 02006KT 9999 OVC017 15/10 A2979 RMK AO2A SLP091 T01450101 $
  • 211155Z AUTO 01004KT 9999 OVC018 14/10 A2980 RMK AO2 DZB1055E27 SLP095 P0000 60000 T01440096 10145 20096 58005 $
  • 211055Z 05005KT 9999 BKN017 OVC038 14/09 A2981 RMK AO2A BKN V OVC SLP098 T01400094 $

TAF TAF EGVA
Valid from the 21 at 12:00 until the 22 at 18:00 UTC


211203Z 2112/2218 03009KT 9999 BKN015 OVC030 QNH2976INS
BECMG 2117/2118 VRB03KT 9000 -SHRA BKN015 QNH2977INS
BECMG 2122/2123 VRB06KT 8000 BR BKN015 QNH2971INS
BECMG 2204/2205 28009KT 9000 -SHRA BKN007 QNH2970INS
BECMG 2209/2210 28012G20KT -SHRA BKN015 QNH2969INS TX15/2114Z TN12/2204Z



MET'MAP, your aeronautical weather chart ! - Copyright ORBIFLY December 2007 - Disclaimer

ORBIFLY MET'MAP TEAM :

Programming & Development : Alexandra Zaïnal
Original concept : Baudouin d'Aumeries
Technical & hardware support : Manuel Goepfert
Assistance : Marc-Olivier Méhu




SOURCES & CREDITS :

   NOAA